Time;durP1;ratioP1;P1;durP2;ratioP2;P2;SDS_P1;SDS_P2;PMS_P1;PMS_P2;Temp;Humidity;BMP_temperature;BMP_pressure;BME280_temperature;BME280_humidity;BME280_pressure;Samples;Min_cycle;Max_cycle;Signal;HPM_P1;HPM_P2
2022/07/17 00:00:44;;;;;;;0.52;0.30;;;18.20;57.50;;;;;;5051092;28;20462;-68
2022/07/17 00:03:11;;;;;;;0.30;0.30;;;18.10;57.60;;;;;;5050754;28;20060;-68
2022/07/17 00:05:37;;;;;;;0.93;0.43;;;18.10;57.60;;;;;;5062794;28;20538;-68
2022/07/17 00:08:07;;;;;;;0.43;0.35;;;18.10;57.70;;;;;;5050676;28;20460;-68
2022/07/17 00:11:20;;;;;;;3.15;0.60;;;18.10;57.80;;;;;;5051529;28;20037;-68
2022/07/17 00:13:27;;;;;;;0.55;0.50;;;18.10;57.80;;;;;;5045059;28;20036;-69
2022/07/17 00:15:53;;;;;;;0.75;0.68;;;18.00;57.90;;;;;;5051503;28;20041;-68
2022/07/17 00:18:18;;;;;;;0.40;0.40;;;18.00;58.10;;;;;;5041455;28;20043;-68
2022/07/17 00:20:44;;;;;;;0.77;0.60;;;18.00;58.20;;;;;;5051768;28;20009;-65
2022/07/17 00:23:10;;;;;;;1.23;0.40;;;17.90;58.20;;;;;;5044830;28;20032;-65
2022/07/17 00:25:36;;;;;;;0.50;0.50;;;17.90;58.30;;;;;;5044241;28;20029;-65
2022/07/17 00:28:02;;;;;;;0.40;0.40;;;17.90;58.50;;;;;;5043381;28;20071;-68
2022/07/17 00:30:28;;;;;;;0.43;0.43;;;17.80;58.60;;;;;;5050275;28;20356;-67
2022/07/17 00:32:54;;;;;;;2.22;0.80;;;17.80;58.70;;;;;;5051061;28;20375;-64
2022/07/17 00:35:20;;;;;;;1.33;0.70;;;17.70;58.80;;;;;;5050028;28;20036;-66
2022/07/17 00:37:47;;;;;;;0.52;0.50;;;17.70;58.80;;;;;;5047257;28;20472;-64
2022/07/17 00:40:18;;;;;;;1.00;0.43;;;17.70;58.90;;;;;;5060039;28;20037;-65
2022/07/17 00:42:44;;;;;;;0.65;0.50;;;17.70;59.00;;;;;;5043398;28;20364;-68
2022/07/17 00:45:12;;;;;;;0.80;0.55;;;17.60;59.10;;;;;;5048592;28;20128;-68
2022/07/17 00:47:58;;;;;;;1.33;0.70;;;17.60;59.20;;;;;;5049236;28;20099;-68
2022/07/17 00:50:29;;;;;;;0.40;0.30;;;17.60;59.10;;;;;;5042580;28;20044;-68
2022/07/17 00:52:55;;;;;;;2.53;0.95;;;17.60;59.30;;;;;;5046978;28;20027;-68
2022/07/17 00:55:22;;;;;;;0.98;0.60;;;17.50;59.40;;;;;;5046057;28;20033;-65
2022/07/17 00:57:49;;;;;;;1.13;0.88;;;17.50;59.50;;;;;;5049709;28;20223;-68
2022/07/17 01:00:16;;;;;;;0.20;0.20;;;17.40;59.60;;;;;;5050417;28;20198;-65
2022/07/17 01:02:49;;;;;;;1.70;0.60;;;17.40;59.60;;;;;;5050827;28;20147;-68
2022/07/17 01:05:15;;;;;;;0.88;0.50;;;17.40;59.70;;;;;;5044965;28;20468;-65
2022/07/17 01:07:42;;;;;;;0.75;0.63;;;17.40;59.80;;;;;;5041770;28;20044;-68
2022/07/17 01:10:08;;;;;;;0.40;0.40;;;17.30;59.80;;;;;;5047169;28;20422;-65
2022/07/17 01:12:34;;;;;;;0.50;0.50;;;17.30;59.70;;;;;;5035407;28;20036;-66
2022/07/17 01:15:00;;;;;;;0.63;0.63;;;17.30;59.80;;;;;;5046652;28;20455;-65
2022/07/17 01:17:26;;;;;;;0.90;0.68;;;17.30;59.90;;;;;;5045297;28;20033;-68
2022/07/17 01:19:52;;;;;;;0.82;0.55;;;17.20;59.90;;;;;;5046487;28;20456;-65
2022/07/17 01:22:19;;;;;;;1.30;0.85;;;17.20;60.00;;;;;;5057502;28;20059;-65
2022/07/17 01:24:45;;;;;;;0.55;0.40;;;17.10;60.00;;;;;;5048582;28;20038;-68
2022/07/17 01:27:11;;;;;;;0.85;0.68;;;17.20;60.10;;;;;;5039041;28;20056;-65
2022/07/17 01:29:38;;;;;;;0.45;0.43;;;17.10;60.20;;;;;;5046652;28;20033;-68
2022/07/17 01:32:04;;;;;;;0.50;0.40;;;17.10;60.30;;;;;;5049313;28;20068;-68
2022/07/17 01:34:30;;;;;;;0.60;0.60;;;17.10;60.40;;;;;;5042144;28;20072;-65
2022/07/17 01:36:56;;;;;;;0.55;0.40;;;17.10;60.50;;;;;;5043421;28;20069;-65
2022/07/17 01:39:52;;;;;;;2.60;0.47;;;17.00;60.40;;;;;;5048684;28;20044;-68
2022/07/17 01:42:07;;;;;;;1.00;0.55;;;17.00;60.50;;;;;;5040224;28;20071;-68
2022/07/17 01:44:33;;;;;;;1.13;0.50;;;17.00;60.50;;;;;;5047519;28;20460;-68
2022/07/17 01:46:59;;;;;;;0.50;0.40;;;17.00;60.60;;;;;;5048360;28;20384;-68
2022/07/17 01:49:25;;;;;;;0.32;0.32;;;16.90;60.70;;;;;;5042453;28;20074;-68
2022/07/17 01:51:50;;;;;;;0.32;0.32;;;16.90;60.80;;;;;;5057233;28;20210;-65
2022/07/17 01:54:16;;;;;;;1.38;0.65;;;16.80;60.80;;;;;;5044072;28;20044;-68
2022/07/17 01:56:42;;;;;;;2.38;0.55;;;16.80;61.00;;;;;;5060759;28;20067;-65
2022/07/17 01:59:08;;;;;;;0.30;0.30;;;16.80;61.00;;;;;;5049763;28;20040;-66
2022/07/17 02:01:34;;;;;;;0.30;0.30;;;16.70;61.10;;;;;;5053843;28;20047;-65
2022/07/17 02:03:59;;;;;;;0.95;0.60;;;16.70;61.20;;;;;;5039661;28;20454;-66
2022/07/17 02:06:25;;;;;;;0.75;0.55;;;16.70;61.30;;;;;;5054799;28;20123;-65
2022/07/17 02:08:51;;;;;;;0.38;0.38;;;16.70;61.40;;;;;;5049055;28;20034;-66
2022/07/17 02:11:19;;;;;;;2.80;0.70;;;16.60;61.40;;;;;;5066605;28;20040;-65
2022/07/17 02:13:45;;;;;;;0.73;0.47;;;16.60;61.40;;;;;;5035536;28;20029;-65
2022/07/17 02:16:10;;;;;;;0.80;0.60;;;16.60;61.50;;;;;;5057586;28;20036;-65
2022/07/17 02:18:36;;;;;;;0.38;0.38;;;16.60;61.50;;;;;;5047980;28;20044;-65
2022/07/17 02:21:02;;;;;;;2.67;0.60;;;16.50;61.90;;;;;;5045393;28;20033;-66
2022/07/17 02:23:28;;;;;;;0.50;0.50;;;16.50;61.70;;;;;;5047148;28;20032;-66
2022/07/17 02:25:54;;;;;;;0.35;0.35;;;16.50;61.90;;;;;;5049370;28;20036;-65
2022/07/17 02:28:20;;;;;;;0.57;0.55;;;16.40;62.00;;;;;;5049940;28;20112;-65
2022/07/17 02:30:47;;;;;;;2.40;0.50;;;16.40;62.00;;;;;;5057984;28;20479;-65
2022/07/17 02:33:13;;;;;;;2.22;0.68;;;16.40;62.10;;;;;;5059199;28;20163;-68
2022/07/17 02:35:39;;;;;;;0.90;0.50;;;16.30;62.00;;;;;;5054470;28;20156;-65
2022/07/17 02:38:04;;;;;;;0.73;0.60;;;16.30;62.20;;;;;;5063093;28;20029;-67
2022/07/17 02:40:30;;;;;;;0.88;0.75;;;16.30;62.30;;;;;;5069301;28;20028;-68
2022/07/17 02:42:56;;;;;;;4.60;0.52;;;16.20;62.40;;;;;;5067940;28;20012;-68
2022/07/17 02:45:24;;;;;;;0.50;0.43;;;16.20;62.50;;;;;;5060838;28;20067;-65
2022/07/17 02:47:50;;;;;;;0.30;0.30;;;16.20;62.60;;;;;;5058941;28;20384;-65
2022/07/17 02:50:16;;;;;;;0.63;0.38;;;16.10;62.60;;;;;;5047242;28;20036;-65
2022/07/17 02:52:43;;;;;;;0.98;0.63;;;16.10;62.80;;;;;;5052620;28;20029;-65
2022/07/17 02:55:10;;;;;;;1.05;0.40;;;16.10;62.90;;;;;;5053034;28;20032;-65
2022/07/17 02:57:37;;;;;;;0.52;0.52;;;16.10;63.00;;;;;;5058070;28;20036;-66
2022/07/17 03:00:06;;;;;;;0.68;0.40;;;16.00;63.00;;;;;;5059166;28;20378;-65
2022/07/17 03:02:35;;;;;;;0.50;0.50;;;16.00;63.10;;;;;;5056704;28;20135;-66
2022/07/17 03:05:01;;;;;;;0.55;0.55;;;16.00;63.20;;;;;;5051019;28;20025;-65
2022/07/17 03:07:27;;;;;;;1.75;0.80;;;16.00;63.30;;;;;;5063126;28;20037;-66
2022/07/17 03:09:53;;;;;;;1.95;0.55;;;15.90;63.30;;;;;;5057043;28;20035;-65
2022/07/17 03:12:18;;;;;;;0.80;0.50;;;15.90;63.40;;;;;;5055207;28;20029;-65
2022/07/17 03:14:44;;;;;;;1.10;0.75;;;15.90;63.40;;;;;;5043676;28;20033;-65
2022/07/17 03:17:10;;;;;;;1.58;0.43;;;15.90;63.50;;;;;;5054005;28;20025;-65
2022/07/17 03:19:35;;;;;;;0.88;0.40;;;15.80;63.40;;;;;;5069473;28;20126;-65
2022/07/17 03:22:04;;;;;;;0.90;0.60;;;15.80;63.50;;;;;;5059070;28;20108;-65
2022/07/17 03:24:30;;;;;;;0.47;0.30;;;15.80;64.10;;;;;;5056355;28;20071;-66
2022/07/17 03:26:55;;;;;;;0.38;0.35;;;15.80;63.50;;;;;;5056223;28;20061;-65
2022/07/17 03:29:21;;;;;;;0.38;0.38;;;15.70;63.60;;;;;;5051879;28;20431;-65
2022/07/17 03:31:47;;;;;;;0.40;0.40;;;15.70;63.70;;;;;;5050412;28;20037;-65
2022/07/17 03:34:14;;;;;;;0.95;0.60;;;15.70;63.70;;;;;;5058347;28;20017;-65
2022/07/17 03:36:40;;;;;;;2.05;0.63;;;15.70;63.80;;;;;;5061221;28;20383;-66
2022/07/17 03:39:06;;;;;;;0.90;0.65;;;15.70;63.90;;;;;;5061290;28;20060;-65
2022/07/17 03:41:32;;;;;;;0.35;0.35;;;15.60;63.90;;;;;;5063935;28;20087;-65
2022/07/17 03:43:58;;;;;;;0.88;0.60;;;15.60;64.00;;;;;;5067080;28;20037;-68
2022/07/17 03:46:23;;;;;;;2.85;0.68;;;15.60;64.20;;;;;;5070881;28;20112;-68
2022/07/17 03:48:49;;;;;;;2.47;0.43;;;15.60;64.20;;;;;;5043896;28;20048;-69
2022/07/17 03:51:15;;;;;;;0.50;0.50;;;15.60;64.20;;;;;;5052248;28;20029;-69
2022/07/17 03:53:41;;;;;;;0.63;0.40;;;15.60;64.30;;;;;;5049913;28;20025;-69
2022/07/17 03:56:07;;;;;;;0.52;0.47;;;15.50;64.30;;;;;;5054074;28;20431;-67
2022/07/17 03:58:32;;;;;;;0.20;0.20;;;15.50;64.30;;;;;;5044115;28;20037;-66
2022/07/17 04:01:04;;;;;;;0.77;0.47;;;15.50;64.30;;;;;;5051594;28;20041;-69
2022/07/17 04:03:30;;;;;;;0.40;0.40;;;15.50;64.30;;;;;;5061628;28;20064;-68
2022/07/17 04:05:56;;;;;;;0.95;0.55;;;15.50;64.40;;;;;;5060660;28;20029;-68
2022/07/17 04:08:21;;;;;;;0.30;0.30;;;15.60;64.40;;;;;;5044405;28;20124;-68
2022/07/17 04:10:47;;;;;;;0.40;0.40;;;15.60;64.50;;;;;;5066309;28;20394;-66
2022/07/17 04:13:13;;;;;;;2.05;0.60;;;15.60;64.50;;;;;;5057640;28;20104;-65
2022/07/17 04:15:59;;;;;;;0.93;0.43;;;15.50;64.60;;;;;;5053967;28;20040;-68
2022/07/17 04:18:28;;;;;;;0.77;0.40;;;15.60;64.90;;;;;;5071196;28;20017;-68
2022/07/17 04:20:58;;;;;;;0.40;0.40;;;15.50;64.90;;;;;;5060348;28;20033;-65
2022/07/17 04:23:24;;;;;;;0.40;0.38;;;15.60;65.00;;;;;;5070927;28;20554;-66
2022/07/17 04:25:49;;;;;;;0.60;0.40;;;15.60;65.20;;;;;;5047926;28;20034;-69
2022/07/17 04:28:16;;;;;;;0.75;0.70;;;15.60;65.30;;;;;;5059759;28;20036;-67
2022/07/17 04:30:42;;;;;;;0.40;0.40;;;15.60;65.20;;;;;;5060835;28;20074;-68
2022/07/17 04:33:09;;;;;;;0.55;0.45;;;15.70;65.10;;;;;;5061639;28;20046;-69
2022/07/17 04:35:35;;;;;;;0.38;0.38;;;15.70;65.80;;;;;;5061004;28;20037;-68
2022/07/17 04:38:01;;;;;;;0.68;0.60;;;15.70;65.30;;;;;;5069185;28;20494;-66
2022/07/17 04:40:27;;;;;;;0.50;0.50;;;15.70;65.30;;;;;;5056468;28;20033;-66
2022/07/17 04:42:53;;;;;;;0.50;0.50;;;15.70;65.40;;;;;;5059519;28;20457;-66
2022/07/17 04:45:18;;;;;;;0.35;0.35;;;15.70;65.50;;;;;;5057434;28;20112;-65
2022/07/17 04:47:44;;;;;;;0.60;0.45;;;15.80;65.40;;;;;;5059416;28;20481;-65
2022/07/17 04:50:10;;;;;;;0.70;0.70;;;15.80;65.50;;;;;;5043241;28;20032;-65
2022/07/17 04:52:36;;;;;;;1.20;0.65;;;15.90;65.40;;;;;;5069667;28;20037;-65
2022/07/17 04:55:02;;;;;;;0.70;0.63;;;16.00;65.40;;;;;;5068218;28;20056;-65
2022/07/17 04:57:28;;;;;;;4.68;0.40;;;16.10;65.30;;;;;;5061454;28;20029;-66
2022/07/17 04:59:54;;;;;;;0.38;0.38;;;16.20;65.20;;;;;;5048496;28;20083;-68
2022/07/17 05:02:20;;;;;;;0.55;0.45;;;16.30;65.10;;;;;;5057396;28;20040;-68
2022/07/17 05:04:49;;;;;;;0.75;0.60;;;16.40;65.00;;;;;;5062697;28;20074;-69
2022/07/17 05:07:15;;;;;;;4.38;0.63;;;16.50;64.90;;;;;;5051542;28;20095;-65
2022/07/17 05:09:41;;;;;;;0.28;0.28;;;16.60;64.90;;;;;;5063978;28;20029;-66
2022/07/17 05:12:06;;;;;;;0.80;0.50;;;16.60;64.90;;;;;;5063846;28;20040;-65
2022/07/17 05:14:32;;;;;;;0.30;0.30;;;16.70;64.90;;;;;;5065771;28;20104;-65
2022/07/17 05:16:58;;;;;;;0.20;0.20;;;16.70;65.00;;;;;;5067869;28;20137;-65
2022/07/17 05:19:24;;;;;;;0.80;0.50;;;16.70;65.10;;;;;;5067465;28;20025;-66
2022/07/17 05:21:50;;;;;;;0.75;0.30;;;16.70;65.20;;;;;;5051774;28;20463;-65
2022/07/17 05:24:15;;;;;;;1.10;0.77;;;16.70;65.30;;;;;;5050150;28;20068;-65
2022/07/17 05:26:41;;;;;;;0.55;0.40;;;16.70;65.40;;;;;;5056618;28;20072;-65
2022/07/17 05:29:08;;;;;;;0.30;0.30;;;16.70;65.50;;;;;;5052285;28;20025;-65
2022/07/17 05:31:33;;;;;;;0.77;0.35;;;16.80;65.40;;;;;;5057786;28;20032;-65
2022/07/17 05:33:59;;;;;;;0.55;0.55;;;16.90;65.20;;;;;;5057093;28;20123;-65
2022/07/17 05:36:25;;;;;;;1.35;0.65;;;17.00;64.90;;;;;;5046701;28;20029;-66
2022/07/17 05:38:50;;;;;;;1.17;0.63;;;17.10;64.70;;;;;;5062624;28;20021;-65
2022/07/17 05:41:16;;;;;;;0.50;0.50;;;17.20;64.50;;;;;;5047274;28;20039;-65
2022/07/17 05:43:42;;;;;;;1.95;0.57;;;17.30;64.30;;;;;;5049400;28;20036;-65
2022/07/17 05:46:07;;;;;;;10.35;0.60;;;17.30;64.10;;;;;;5060457;28;20040;-66
2022/07/17 05:48:33;;;;;;;0.73;0.30;;;17.40;63.90;;;;;;5060447;28;20085;-65
2022/07/17 05:50:59;;;;;;;2.10;0.50;;;17.50;63.70;;;;;;5061055;28;20032;-65
2022/07/17 05:53:25;;;;;;;0.55;0.50;;;17.60;63.50;;;;;;5062716;28;20406;-65
2022/07/17 05:55:51;;;;;;;0.40;0.40;;;17.60;63.30;;;;;;5060303;28;20025;-65
2022/07/17 05:58:17;;;;;;;2.50;0.82;;;17.70;63.10;;;;;;5057249;28;20028;-65
2022/07/17 06:00:43;;;;;;;0.22;0.22;;;17.80;63.00;;;;;;5064272;28;20037;-65
2022/07/17 06:03:09;;;;;;;0.55;0.50;;;17.90;62.80;;;;;;5067818;28;20091;-65
2022/07/17 06:05:35;;;;;;;0.70;0.45;;;17.90;62.50;;;;;;5050856;28;20075;-65
2022/07/17 06:08:01;;;;;;;2.35;0.65;;;18.00;62.40;;;;;;5046502;28;20030;-66
2022/07/17 06:10:28;;;;;;;0.40;0.40;;;18.10;62.40;;;;;;5045494;28;20029;-68
2022/07/17 06:12:53;;;;;;;0.40;0.40;;;18.10;62.20;;;;;;5035545;28;20037;-66
2022/07/17 06:15:20;;;;;;;3.65;0.95;;;18.10;62.20;;;;;;5036516;28;20025;-69
2022/07/17 06:17:46;;;;;;;6.80;0.82;;;18.10;62.10;;;;;;5042359;28;20029;-68
2022/07/17 06:20:13;;;;;;;0.35;0.35;;;18.20;62.30;;;;;;5039629;28;20376;-65
2022/07/17 06:22:39;;;;;;;1.10;0.70;;;18.20;62.10;;;;;;5038065;28;20109;-65
2022/07/17 06:25:05;;;;;;;0.65;0.32;;;18.30;61.90;;;;;;5039080;28;20044;-64
2022/07/17 06:27:31;;;;;;;0.95;0.75;;;18.40;61.70;;;;;;5045139;28;20033;-65
2022/07/17 06:29:57;;;;;;;1.00;0.65;;;18.50;61.50;;;;;;5039680;28;20037;-65
2022/07/17 06:32:22;;;;;;;4.32;0.73;;;18.60;61.40;;;;;;5056382;28;20024;-65
2022/07/17 06:34:48;;;;;;;2.97;1.42;;;18.70;61.80;;;;;;5052837;28;20133;-65
2022/07/17 06:37:14;;;;;;;2.83;0.75;;;18.70;60.90;;;;;;5059875;28;20029;-71
2022/07/17 06:39:40;;;;;;;0.50;0.50;;;18.70;60.70;;;;;;5043122;28;20060;-65
2022/07/17 06:42:05;;;;;;;1.40;0.88;;;18.80;60.70;;;;;;5039423;28;20036;-65
2022/07/17 06:44:37;;;;;;;0.98;0.70;;;18.80;60.40;;;;;;5043310;28;20037;-64
2022/07/17 06:47:03;;;;;;;1.67;0.68;;;18.90;60.40;;;;;;5043638;28;20179;-65
2022/07/17 06:49:35;;;;;;;3.63;0.40;;;19.00;60.30;;;;;;5068032;28;20270;-69
2022/07/17 06:52:01;;;;;;;0.38;0.38;;;19.10;60.20;;;;;;5073935;28;20021;-69
2022/07/17 06:54:26;;;;;;;0.88;0.30;;;19.10;60.00;;;;;;5055164;28;20479;-71
2022/07/17 06:56:55;;;;;;;1.75;0.50;;;19.20;59.80;;;;;;5049230;28;20573;-72
2022/07/17 06:59:21;;;;;;;0.68;0.40;;;19.30;59.60;;;;;;5063026;28;20383;-65
2022/07/17 07:01:47;;;;;;;4.10;0.77;;;19.50;59.00;;;;;;5044407;28;20120;-71
2022/07/17 07:04:13;;;;;;;0.90;0.40;;;19.60;58.60;;;;;;5058366;28;20403;-66
2022/07/17 07:06:39;;;;;;;0.40;0.30;;;19.60;58.00;;;;;;5049265;28;20387;-64
2022/07/17 07:09:05;;;;;;;0.88;0.45;;;19.60;57.80;;;;;;5050467;28;20033;-65
2022/07/17 07:11:31;;;;;;;0.57;0.50;;;19.70;57.50;;;;;;5053456;28;20029;-72
2022/07/17 07:13:57;;;;;;;1.05;0.68;;;19.80;58.10;;;;;;5065615;28;20055;-71
2022/07/17 07:16:23;;;;;;;0.30;0.30;;;19.90;57.30;;;;;;5046297;28;20029;-71
2022/07/17 07:18:48;;;;;;;0.88;0.60;;;20.00;57.10;;;;;;5052128;28;20056;-71
2022/07/17 07:21:14;;;;;;;0.47;0.47;;;20.20;56.80;;;;;;5056143;28;20228;-71
2022/07/17 07:23:40;;;;;;;0.95;0.28;;;20.30;56.40;;;;;;5046103;28;20033;-71
2022/07/17 07:26:06;;;;;;;0.38;0.38;;;20.30;56.00;;;;;;5067830;28;20036;-71
2022/07/17 07:28:33;;;;;;;0.80;0.45;;;20.40;55.50;;;;;;5049313;28;20043;-71
2022/07/17 07:30:58;;;;;;;0.40;0.40;;;20.40;55.10;;;;;;5054100;28;20503;-70
2022/07/17 07:33:24;;;;;;;0.25;0.25;;;20.30;55.20;;;;;;5058394;28;20029;-65
2022/07/17 07:35:50;;;;;;;0.32;0.32;;;20.40;55.10;;;;;;5054911;28;20090;-65
2022/07/17 07:38:16;;;;;;;0.52;0.47;;;20.60;54.70;;;;;;5047659;28;20036;-65
2022/07/17 07:40:42;;;;;;;0.70;0.70;;;20.70;54.40;;;;;;5054293;28;20484;-71
2022/07/17 07:43:08;;;;;;;4.75;0.88;;;20.80;54.20;;;;;;5053682;28;20036;-71
2022/07/17 07:45:34;;;;;;;2.92;0.68;;;20.90;54.00;;;;;;5058203;28;20103;-71
2022/07/17 07:48:00;;;;;;;0.30;0.30;;;20.90;53.90;;;;;;5049971;28;20388;-64
2022/07/17 07:50:28;;;;;;;1.58;0.60;;;21.00;53.90;;;;;;5059121;28;20063;-65
2022/07/17 07:52:54;;;;;;;0.63;0.45;;;21.00;53.80;;;;;;5043470;28;20031;-66
2022/07/17 07:55:21;;;;;;;3.83;0.60;;;21.00;53.60;;;;;;5048253;28;20351;-64
2022/07/17 07:58:00;;;;;;;0.38;0.38;;;21.00;53.50;;;;;;5041862;28;20111;-65
2022/07/17 08:00:26;;;;;;;1.10;0.75;;;21.00;53.70;;;;;;5051377;28;20025;-65
2022/07/17 08:02:51;;;;;;;0.30;0.30;;;21.00;53.00;;;;;;5050135;28;20435;-65
2022/07/17 08:05:17;;;;;;;0.30;0.30;;;20.90;53.40;;;;;;5049396;28;20090;-65
2022/07/17 08:07:43;;;;;;;0.63;0.50;;;21.00;53.50;;;;;;5038518;28;20127;-65
2022/07/17 08:10:08;;;;;;;0.40;0.40;;;21.10;53.40;;;;;;5045898;28;20029;-64
2022/07/17 08:12:34;;;;;;;0.30;0.30;;;21.20;53.30;;;;;;5052798;28;20124;-64
2022/07/17 08:15:00;;;;;;;0.50;0.50;;;21.30;53.20;;;;;;5054943;28;20166;-64
2022/07/17 08:17:25;;;;;;;0.35;0.30;;;21.40;53.20;;;;;;5063638;28;20071;-64
2022/07/17 08:19:51;;;;;;;1.45;0.40;;;21.50;52.80;;;;;;5064379;28;20053;-68
2022/07/17 08:22:17;;;;;;;0.20;0.20;;;21.50;52.60;;;;;;5047876;28;20039;-68
2022/07/17 08:24:43;;;;;;;0.88;0.52;;;21.60;52.20;;;;;;5051526;28;20701;-68
2022/07/17 08:27:08;;;;;;;0.40;0.40;;;21.60;52.10;;;;;;5043713;28;20111;-68
2022/07/17 08:29:34;;;;;;;0.50;0.50;;;21.70;52.20;;;;;;5042500;28;20431;-68
2022/07/17 08:31:59;;;;;;;0.50;0.35;;;21.80;51.70;;;;;;5046649;28;20041;-68
2022/07/17 08:34:25;;;;;;;0.35;0.20;;;21.80;51.60;;;;;;5048684;28;20051;-68
2022/07/17 08:36:51;;;;;;;0.38;0.38;;;21.90;51.80;;;;;;5045753;28;20025;-68
2022/07/17 08:39:16;;;;;;;0.43;0.40;;;21.90;51.40;;;;;;5047369;28;20040;-65
2022/07/17 08:41:42;;;;;;;0.30;0.30;;;22.10;51.60;;;;;;5045842;28;20435;-64
2022/07/17 08:44:08;;;;;;;0.45;0.45;;;22.20;51.40;;;;;;5050247;28;20478;-64
2022/07/17 08:46:38;;;;;;;0.40;0.40;;;22.20;51.20;;;;;;5049404;28;20029;-64
2022/07/17 08:49:06;;;;;;;0.30;0.30;;;22.20;51.00;;;;;;5049376;28;20028;-64
2022/07/17 08:51:33;;;;;;;2.95;0.73;;;22.30;51.00;;;;;;5060127;28;20045;-64
2022/07/17 08:53:59;;;;;;;0.82;0.50;;;22.40;50.70;;;;;;5046398;28;20060;-65
2022/07/17 08:56:26;;;;;;;0.52;0.40;;;22.40;50.60;;;;;;5046628;28;20060;-64
2022/07/17 08:58:52;;;;;;;0.30;0.30;;;22.50;50.30;;;;;;5042163;28;20029;-68
2022/07/17 09:01:19;;;;;;;1.85;0.95;;;22.50;50.10;;;;;;5046749;28;20099;-68
2022/07/17 09:04:05;;;;;;;0.40;0.40;;;22.50;50.00;;;;;;5048187;28;20110;-68
2022/07/17 09:06:31;;;;;;;3.03;0.40;;;22.60;50.10;;;;;;5045435;28;20491;-68
2022/07/17 09:09:10;;;;;;;0.52;0.52;;;22.70;50.00;;;;;;5045650;28;20033;-67
2022/07/17 09:11:51;;;;;;;0.30;0.30;;;22.80;49.80;;;;;;5047898;28;20395;-67
2022/07/17 09:14:19;;;;;;;0.30;0.30;;;22.90;49.90;;;;;;5050068;28;20021;-67
2022/07/17 09:16:57;;;;;;;2.40;0.75;;;23.10;49.80;;;;;;5047818;28;20037;-67
2022/07/17 09:19:30;;;;;;;1.20;0.50;;;23.20;49.70;;;;;;5050482;28;20114;-65
2022/07/17 09:22:15;;;;;;;0.65;0.65;;;23.40;49.30;;;;;;5050119;28;20068;-64
2022/07/17 09:25:01;;;;;;;2.03;0.40;;;23.50;48.70;;;;;;5049389;28;20067;-64
2022/07/17 09:27:31;;;;;;;0.30;0.30;;;23.60;48.60;;;;;;5048919;28;20049;-64
2022/07/17 09:30:04;;;;;;;1.98;0.60;;;23.70;47.90;;;;;;5050189;28;20127;-65
2022/07/17 09:32:36;;;;;;;0.85;0.45;;;23.70;47.80;;;;;;5049764;28;20028;-65
2022/07/17 09:35:04;;;;;;;1.55;0.47;;;23.70;47.50;;;;;;5050506;28;20025;-64
2022/07/17 09:37:35;;;;;;;2.40;1.15;;;23.70;47.50;;;;;;5051655;28;20021;-64
2022/07/17 09:40:01;;;;;;;1.23;0.40;;;23.80;47.10;;;;;;5060868;28;20108;-64
2022/07/17 09:42:35;;;;;;;0.40;0.28;;;23.70;47.00;;;;;;5064280;28;20558;-65
2022/07/17 09:45:05;;;;;;;0.70;0.70;;;23.80;47.20;;;;;;5048013;28;20061;-64
2022/07/17 09:47:34;;;;;;;0.60;0.57;;;23.80;47.10;;;;;;5065173;28;20036;-64
2022/07/17 09:50:01;;;;;;;0.30;0.30;;;23.90;47.30;;;;;;5050854;28;20025;-64
2022/07/17 09:52:32;;;;;;;1.63;0.30;;;24.10;47.30;;;;;;5047064;28;20280;-64
2022/07/17 09:55:00;;;;;;;0.30;0.30;;;24.30;47.20;;;;;;5047485;28;20395;-64
2022/07/17 09:57:32;;;;;;;0.75;0.55;;;24.40;47.00;;;;;;5048069;28;20068;-64
2022/07/17 10:00:04;;;;;;;0.50;0.50;;;24.50;46.30;;;;;;5046731;28;20033;-64
2022/07/17 10:02:31;;;;;;;;;;;24.50;46.20;;;;;;5047798;28;20055;-64
2022/07/17 10:04:58;;;;;;;1.95;0.70;;;24.40;45.00;;;;;;5040714;28;19966;-64
2022/07/17 10:07:24;;;;;;;0.55;0.30;;;24.30;45.70;;;;;;5055864;28;20380;-64
2022/07/17 10:09:49;;;;;;;1.02;0.45;;;24.40;46.20;;;;;;5049139;28;20048;-63
2022/07/17 10:12:16;;;;;;;0.68;0.50;;;24.50;45.90;;;;;;5064028;28;20033;-64
2022/07/17 10:14:46;;;;;;;0.70;0.65;;;24.60;45.80;;;;;;5045371;28;20033;-64
2022/07/17 10:17:13;;;;;;;0.50;0.45;;;24.80;45.40;;;;;;5046928;28;20107;-64
2022/07/17 10:19:47;;;;;;;0.50;0.50;;;24.90;45.50;;;;;;5043162;28;20029;-64
2022/07/17 10:22:13;;;;;;;0.52;0.50;;;25.00;45.30;;;;;;5042738;28;20025;-64
2022/07/17 10:24:56;;;;;;;0.50;0.50;;;25.20;45.30;;;;;;5040460;28;20025;-64
2022/07/17 10:27:24;;;;;;;1.98;0.73;;;25.30;44.60;;;;;;5041187;28;20033;-67
2022/07/17 10:30:04;;;;;;;0.73;0.73;;;25.30;44.70;;;;;;5045836;28;20500;-67
2022/07/17 10:32:30;;;;;;;0.52;0.45;;;25.40;44.60;;;;;;5044226;28;20036;-67
2022/07/17 10:35:03;;;;;;;0.47;0.30;;;25.40;44.40;;;;;;5042955;28;20436;-67
2022/07/17 10:37:33;;;;;;;0.70;0.40;;;25.50;44.30;;;;;;5046360;28;20068;-67
2022/07/17 10:40:06;;;;;;;1.35;0.75;;;25.60;44.20;;;;;;5049174;28;20033;-67
2022/07/17 10:42:44;;;;;;;0.55;0.40;;;25.70;44.40;;;;;;5064501;28;20021;-67
2022/07/17 10:45:19;;;;;;;4.88;0.80;;;25.90;44.00;;;;;;5048985;28;20075;-67
2022/07/17 10:47:52;;;;;;;0.50;0.50;;;26.00;43.50;;;;;;5048481;28;20353;-67
2022/07/17 10:50:24;;;;;;;2.05;0.40;;;26.00;43.20;;;;;;5049217;28;20033;-67
2022/07/17 10:53:11;;;;;;;8.05;0.50;;;25.90;43.10;;;;;;5064186;28;20490;-67
2022/07/17 10:55:47;;;;;;;0.43;0.43;;;25.90;43.10;;;;;;5048863;28;20025;-67
2022/07/17 10:58:18;;;;;;;0.82;0.47;;;26.00;43.00;;;;;;5048053;28;20379;-63
2022/07/17 11:00:54;;;;;;;0.65;0.52;;;26.10;43.40;;;;;;5049595;28;20067;-64
2022/07/17 11:03:20;;;;;;;0.35;0.35;;;26.30;43.50;;;;;;5048876;28;20063;-64
2022/07/17 11:05:46;;;;;;;0.50;0.50;;;26.50;42.80;;;;;;5050974;28;20028;-64
2022/07/17 11:08:13;;;;;;;0.55;0.55;;;26.70;41.50;;;;;;5058643;28;20439;-64
2022/07/17 11:10:39;;;;;;;0.63;0.63;;;26.60;41.60;;;;;;5046684;28;20037;-64
2022/07/17 11:13:11;;;;;;;2.20;0.70;;;26.70;42.10;;;;;;5035069;28;20495;-64
2022/07/17 11:15:45;;;;;;;0.63;0.47;;;26.90;42.30;;;;;;5048936;28;20033;-67
2022/07/17 11:18:19;;;;;;;0.82;0.65;;;27.20;41.80;;;;;;5048046;28;20456;-64
2022/07/17 11:20:51;;;;;;;0.80;0.40;;;27.40;41.90;;;;;;5043906;28;20532;-64
2022/07/17 11:23:17;;;;;;;0.63;0.40;;;27.60;41.80;;;;;;5056812;28;20020;-64
2022/07/17 11:25:56;;;;;;;7.43;1.00;;;27.80;41.50;;;;;;5050944;28;20408;-67
2022/07/17 11:28:28;;;;;;;0.50;0.50;;;27.90;41.60;;;;;;5051838;28;20112;-64
2022/07/17 11:30:54;;;;;;;1.80;0.40;;;28.10;41.30;;;;;;5051873;28;20488;-67
2022/07/17 11:33:20;;;;;;;1.00;0.63;;;28.20;40.30;;;;;;5051715;28;20060;-63
2022/07/17 11:35:49;;;;;;;0.40;0.40;;;28.30;40.20;;;;;;5052430;28;20032;-64
2022/07/17 11:38:14;;;;;;;0.50;0.50;;;28.40;40.00;;;;;;5037161;28;20451;-64
2022/07/17 11:40:50;;;;;;;0.70;0.60;;;28.40;39.20;;;;;;5067435;28;20037;-64
2022/07/17 11:43:16;;;;;;;0.60;0.45;;;28.40;39.70;;;;;;5051053;28;20028;-64
2022/07/17 11:45:42;;;;;;;0.45;0.30;;;28.40;39.40;;;;;;5051652;28;20074;-67
2022/07/17 11:48:08;;;;;;;0.50;0.50;;;28.40;39.10;;;;;;5051634;28;20550;-67
2022/07/17 11:50:34;;;;;;;0.40;0.40;;;28.50;39.00;;;;;;5052054;28;20108;-64
2022/07/17 11:53:02;;;;;;;0.68;0.40;;;28.50;39.00;;;;;;5051902;28;20116;-64
2022/07/17 11:55:39;;;;;;;0.50;0.50;;;28.60;39.20;;;;;;5038444;28;20032;-64
2022/07/17 11:58:05;;;;;;;0.80;0.70;;;28.80;38.80;;;;;;5051681;28;20070;-64
2022/07/17 12:00:31;;;;;;;1.30;0.88;;;28.90;38.30;;;;;;5051908;28;20056;-64
2022/07/17 12:03:04;;;;;;;0.40;0.40;;;28.90;37.80;;;;;;5051686;28;20057;-64
2022/07/17 12:05:33;;;;;;;0.93;0.93;;;29.00;38.10;;;;;;5051059;28;20040;-64
2022/07/17 12:07:59;;;;;;;0.43;0.43;;;29.20;37.70;;;;;;5063248;28;20105;-64
2022/07/17 12:10:26;;;;;;;1.20;0.50;;;29.40;36.80;;;;;;5060360;28;20035;-64
2022/07/17 12:13:04;;;;;;;1.02;0.70;;;29.40;37.20;;;;;;5049506;28;20116;-64
2022/07/17 12:15:46;;;;;;;0.63;0.57;;;29.60;36.70;;;;;;5045186;28;20052;-64
2022/07/17 12:18:27;;;;;;;0.40;0.40;;;29.60;36.20;;;;;;5038241;28;20021;-64
2022/07/17 12:20:56;;;;;;;0.32;0.32;;;29.70;36.70;;;;;;5051506;28;20033;-64
2022/07/17 12:23:30;;;;;;;0.40;0.40;;;29.90;36.50;;;;;;5066482;28;20024;-64
2022/07/17 12:26:10;;;;;;;0.45;0.45;;;30.10;35.80;;;;;;5066291;28;20082;-64
2022/07/17 12:28:37;;;;;;;0.82;0.73;;;30.30;35.30;;;;;;5050773;28;20020;-64
2022/07/17 12:31:03;;;;;;;0.40;0.40;;;30.50;35.30;;;;;;5051163;28;20047;-64
2022/07/17 12:33:29;;;;;;;0.60;0.50;;;30.50;35.20;;;;;;5051067;28;20128;-67
2022/07/17 12:35:55;;;;;;;0.57;0.57;;;30.50;35.10;;;;;;5029714;28;20112;-67
2022/07/17 12:38:21;;;;;;;0.43;0.38;;;30.50;34.80;;;;;;5049982;28;20017;-67
2022/07/17 12:40:47;;;;;;;1.85;0.60;;;30.40;34.20;;;;;;5051037;28;20033;-67
2022/07/17 12:43:13;;;;;;;0.50;0.50;;;30.30;33.80;;;;;;5050355;28;20535;-67
2022/07/17 12:45:39;;;;;;;0.40;0.40;;;30.30;34.20;;;;;;5049230;28;20523;-67
2022/07/17 12:48:04;;;;;;;0.57;0.57;;;30.40;33.70;;;;;;5044702;28;20491;-67
2022/07/17 12:50:30;;;;;;;0.60;0.60;;;30.30;33.00;;;;;;5046870;28;20040;-64